METAR Data
IDs: Format: Raw Decoded Include TAF

Data at: 0237 UTC 29 Nov 2020

METAR for:KBNW (Boone Muni, IA, US)
Text:KBNW 290235Z AUTO 23009KT 10SM CLR 06/02 A2997 RMK AO2
Temperature: 6.0°C ( 43°F)
Dewpoint: 2.0°C ( 36°F) [RH = 75%]
Pressure (altimeter):29.97 inches Hg (1015.0 mb)
Winds:from the SW (230 degrees) at 10 MPH (9 knots; 4.6 m/s)
Visibility:10 or more sm (16+ km)
Ceiling:at least 12,000 feet AGL
Clouds:sky clear below 12,000 feet AGL
QC Flag:automated observation with no human augmentation